createdAt,value
2023-02-11T00:01:54.246Z,2.45
2023-02-11T00:04:21.449Z,1.90
2023-02-11T00:06:48.666Z,3.17
2023-02-11T00:09:15.875Z,2.17
2023-02-11T00:11:43.047Z,2.22
2023-02-11T00:14:11.108Z,2.38
2023-02-11T00:16:38.312Z,2.88
2023-02-11T00:19:06.605Z,2.37
2023-02-11T00:21:34.023Z,2.25
2023-02-11T00:24:02.229Z,2.22
2023-02-11T00:26:30.958Z,2.10
2023-02-11T00:28:58.312Z,2.33
2023-02-11T00:31:26.307Z,2.03
2023-02-11T00:33:54.073Z,1.90
2023-02-11T00:36:23.166Z,2.60
2023-02-11T00:38:50.638Z,1.83
2023-02-11T00:41:18.341Z,2.53
2023-02-11T00:43:45.882Z,1.87
2023-02-11T00:46:13.463Z,2.20
2023-02-11T00:48:41.000Z,2.10
2023-02-11T00:51:08.538Z,2.30
2023-02-11T00:53:36.145Z,2.30
2023-02-11T00:56:03.316Z,3.30
2023-02-11T00:58:30.662Z,2.58
2023-02-11T01:00:57.966Z,2.50
2023-02-11T01:03:25.353Z,2.38
2023-02-11T01:05:52.997Z,2.60
2023-02-11T01:08:20.690Z,2.47
2023-02-11T01:10:54.544Z,3.45
2023-02-11T01:13:21.871Z,2.78
2023-02-11T01:15:49.330Z,3.42
2023-02-11T01:18:16.718Z,2.45
2023-02-11T01:20:43.830Z,2.53
2023-02-11T01:23:11.262Z,2.47
2023-02-11T01:25:38.532Z,2.83
2023-02-11T01:28:05.801Z,2.72
2023-02-11T01:30:33.111Z,2.67
2023-02-11T01:33:00.280Z,2.80
2023-02-11T01:35:27.414Z,2.30
2023-02-11T01:37:55.090Z,2.72
2023-02-11T01:40:22.288Z,2.95
2023-02-11T01:42:51.022Z,3.20
2023-02-11T01:45:37.056Z,2.80
2023-02-11T01:48:04.206Z,2.58
2023-02-11T01:50:32.012Z,2.80
2023-02-11T01:53:19.271Z,2.60
2023-02-11T01:56:04.936Z,2.42
2023-02-11T01:58:33.425Z,2.80
2023-02-11T02:01:01.324Z,2.70
2023-02-11T02:03:28.709Z,2.53
2023-02-11T02:06:02.569Z,2.67
2023-02-11T02:08:48.198Z,3.10
2023-02-11T02:11:15.381Z,2.50
2023-02-11T02:13:42.546Z,2.90
2023-02-11T02:16:13.414Z,2.72
2023-02-11T02:18:40.572Z,3.15
2023-02-11T02:21:26.477Z,2.95
2023-02-11T02:23:53.650Z,3.30
2023-02-11T02:26:45.702Z,2.67
2023-02-11T02:29:12.834Z,3.65
2023-02-11T02:31:43.055Z,3.20
2023-02-11T02:34:12.521Z,3.30
2023-02-11T02:36:44.430Z,2.97
2023-02-11T02:39:13.895Z,3.00
2023-02-11T02:41:41.891Z,4.03
2023-02-11T02:44:09.335Z,3.00
2023-02-11T02:46:37.137Z,3.47
2023-02-11T02:49:04.360Z,3.37
2023-02-11T02:51:38.096Z,3.50
2023-02-11T02:54:23.961Z,3.00
2023-02-11T02:56:55.718Z,3.65
2023-02-11T02:59:47.256Z,4.30
2023-02-11T03:02:33.254Z,3.17
2023-02-11T03:05:00.390Z,3.67
2023-02-11T03:07:41.730Z,3.88
2023-02-11T03:10:10.933Z,3.95
2023-02-11T03:12:38.637Z,3.42
2023-02-11T03:15:06.566Z,4.47
2023-02-11T03:17:34.783Z,4.25
2023-02-11T03:20:02.599Z,4.70
2023-02-11T03:22:38.383Z,4.30
2023-02-11T03:25:05.901Z,4.20
2023-02-11T03:27:36.170Z,4.13
2023-02-11T03:30:11.486Z,3.92
2023-02-11T03:32:44.778Z,4.32
2023-02-11T03:35:11.931Z,4.60
2023-02-11T03:37:41.777Z,4.53
2023-02-11T03:40:08.926Z,4.93
2023-02-11T03:42:38.284Z,4.75
2023-02-11T03:45:06.865Z,5.05
2023-02-11T03:47:35.773Z,4.47
2023-02-11T03:50:04.442Z,4.55
2023-02-11T03:52:32.271Z,4.70
2023-02-11T03:55:00.889Z,5.05
2023-02-11T03:57:28.050Z,5.28
2023-02-11T03:59:56.539Z,4.90
2023-02-11T04:02:26.018Z,6.20
2023-02-11T04:04:53.239Z,5.17
2023-02-11T04:07:20.351Z,5.43
2023-02-11T04:09:47.449Z,5.40
2023-02-11T04:12:14.524Z,5.88
2023-02-11T04:14:41.705Z,4.72
2023-02-11T04:17:08.802Z,6.73
2023-02-11T04:19:36.042Z,5.20
2023-02-11T04:22:03.600Z,6.10
2023-02-11T04:24:30.765Z,6.50
2023-02-11T04:26:58.158Z,6.38
2023-02-11T04:29:25.414Z,6.27
2023-02-11T04:31:52.557Z,6.30
2023-02-11T04:34:19.737Z,6.82
2023-02-11T04:36:46.859Z,6.18
2023-02-11T04:39:13.982Z,6.40
2023-02-11T04:41:41.155Z,6.30
2023-02-11T04:44:08.399Z,6.43
2023-02-11T04:46:35.558Z,6.93
2023-02-11T04:49:02.874Z,7.00
2023-02-11T04:51:30.570Z,7.07
2023-02-11T04:53:57.717Z,7.07
2023-02-11T04:56:24.942Z,7.55
2023-02-11T04:58:52.253Z,6.80
2023-02-11T05:01:19.444Z,6.45
2023-02-11T05:03:46.606Z,7.07
2023-02-11T05:06:13.856Z,7.03
2023-02-11T05:08:41.033Z,7.05
2023-02-11T05:11:08.526Z,7.55
2023-02-11T05:13:35.697Z,7.20
2023-02-11T05:16:02.884Z,7.57
2023-02-11T05:18:30.005Z,7.33
2023-02-11T05:20:57.434Z,7.80
2023-02-11T05:23:24.596Z,7.47
2023-02-11T05:25:52.009Z,8.38
2023-02-11T05:28:19.333Z,8.10
2023-02-11T05:30:46.557Z,7.87
2023-02-11T05:33:13.679Z,7.70
2023-02-11T05:35:40.856Z,7.97
2023-02-11T05:38:08.033Z,7.70
2023-02-11T05:40:35.132Z,7.95
2023-02-11T05:43:02.310Z,7.83
2023-02-11T05:45:29.476Z,8.07
2023-02-11T05:47:56.996Z,8.27
2023-02-11T05:50:24.494Z,8.65
2023-02-11T05:52:51.682Z,8.15
2023-02-11T05:55:19.028Z,8.13
2023-02-11T05:57:46.147Z,8.05
2023-02-11T06:00:14.123Z,9.00
2023-02-11T06:02:41.385Z,8.68
2023-02-11T06:05:08.863Z,8.77
2023-02-11T06:07:36.089Z,8.80
2023-02-11T06:10:03.178Z,9.38
2023-02-11T06:12:30.336Z,8.82
2023-02-11T06:14:57.496Z,8.18
2023-02-11T06:17:25.427Z,8.23
2023-02-11T06:19:52.541Z,8.30
2023-02-11T06:22:19.674Z,8.77
2023-02-11T06:25:00.825Z,8.63
2023-02-11T06:27:29.110Z,8.60
2023-02-11T06:29:56.306Z,9.38
2023-02-11T06:32:43.358Z,8.40
2023-02-11T06:35:12.153Z,9.05
2023-02-11T06:37:39.781Z,9.30
2023-02-11T06:40:07.434Z,9.02
2023-02-11T06:42:36.072Z,8.93
2023-02-11T06:45:05.860Z,9.53
2023-02-11T06:47:33.038Z,9.60
2023-02-11T06:50:00.260Z,9.80
2023-02-11T06:52:27.369Z,8.80
2023-02-11T06:54:54.596Z,9.63
2023-02-11T06:57:21.908Z,9.73
2023-02-11T06:59:49.137Z,9.63
2023-02-11T07:02:17.984Z,10.32
2023-02-11T07:04:46.307Z,9.65
2023-02-11T07:07:13.480Z,10.75
2023-02-11T07:09:40.607Z,10.43
2023-02-11T07:12:07.799Z,10.25
2023-02-11T07:14:34.942Z,10.88
2023-02-11T07:17:04.025Z,10.30
2023-02-11T07:19:31.265Z,10.52
2023-02-11T07:21:58.437Z,11.20
2023-02-11T07:24:25.562Z,10.43
2023-02-11T07:26:53.710Z,10.43
2023-02-11T07:29:20.877Z,11.00
2023-02-11T07:31:48.194Z,9.90
2023-02-11T07:34:15.458Z,10.13
2023-02-11T07:36:43.753Z,11.05
2023-02-11T07:39:10.975Z,10.68
2023-02-11T07:41:38.921Z,10.13
2023-02-11T07:44:06.328Z,9.73
2023-02-11T07:46:35.597Z,10.00
2023-02-11T07:49:02.767Z,10.05
2023-02-11T07:51:31.122Z,10.90
2023-02-11T07:53:59.141Z,10.80
2023-02-11T07:56:26.623Z,10.23
2023-02-11T07:58:54.058Z,9.97
2023-02-11T08:01:28.174Z,10.45
2023-02-11T08:03:56.392Z,10.80
2023-02-11T08:06:24.597Z,10.27
2023-02-11T08:08:52.008Z,10.45
2023-02-11T08:11:21.269Z,9.97
2023-02-11T08:13:48.538Z,9.57
2023-02-11T08:16:23.610Z,10.52
2023-02-11T08:18:51.271Z,10.90
2023-02-11T08:21:19.024Z,9.85
2023-02-11T08:23:46.761Z,10.50
2023-02-11T08:26:21.117Z,11.18
2023-02-11T08:28:49.088Z,10.75
2023-02-11T08:31:18.133Z,11.30
2023-02-11T08:33:45.471Z,10.93
2023-02-11T08:36:16.717Z,10.20
2023-02-11T08:38:44.096Z,11.02
2023-02-11T08:41:11.335Z,10.77
2023-02-11T08:43:42.445Z,10.85
2023-02-11T08:46:10.521Z,11.32
2023-02-11T08:48:37.717Z,10.93
2023-02-11T08:51:08.873Z,10.82
2023-02-11T08:53:36.432Z,11.07
2023-02-11T08:56:03.662Z,11.32
2023-02-11T08:58:30.828Z,11.23
2023-02-11T09:00:58.049Z,11.97
2023-02-11T09:03:25.397Z,11.57
2023-02-11T09:05:53.524Z,12.32
2023-02-11T09:08:21.447Z,11.95
2023-02-11T09:10:48.991Z,12.57
2023-02-11T09:13:16.936Z,11.53
2023-02-11T09:15:47.270Z,11.35
2023-02-11T09:18:14.721Z,11.80
2023-02-11T09:20:41.897Z,11.43
2023-02-11T09:23:09.106Z,11.32
2023-02-11T09:25:36.536Z,11.03
2023-02-11T09:28:03.746Z,11.50
2023-02-11T09:30:31.015Z,12.07
2023-02-11T09:32:58.238Z,11.80
2023-02-11T09:35:25.485Z,11.70
2023-02-11T09:37:52.643Z,10.87
2023-02-11T09:40:20.211Z,11.15
2023-02-11T09:43:10.692Z,10.68
2023-02-11T09:45:38.141Z,11.30
2023-02-11T09:48:08.345Z,11.90
2023-02-11T09:50:47.248Z,12.00
2023-02-11T09:53:53.669Z,11.55
2023-02-11T09:56:20.885Z,12.10
2023-02-11T09:58:48.048Z,11.25
2023-02-11T10:01:33.960Z,12.05
2023-02-11T10:04:01.140Z,10.33
2023-02-11T10:06:33.259Z,11.48
2023-02-11T10:09:05.716Z,12.55
2023-02-11T10:11:47.731Z,12.10
2023-02-11T10:14:14.829Z,11.23
2023-02-11T10:16:57.302Z,10.77
2023-02-11T10:19:32.443Z,11.30
2023-02-11T10:22:06.283Z,12.60
2023-02-11T10:24:34.302Z,10.63
2023-02-11T10:27:02.393Z,10.82
2023-02-11T10:29:32.578Z,10.93
2023-02-11T10:32:01.301Z,10.48
2023-02-11T10:34:28.541Z,10.68
2023-02-11T10:36:55.737Z,10.82
2023-02-11T10:39:24.416Z,10.88
2023-02-11T10:41:54.128Z,10.73
2023-02-11T10:44:28.490Z,10.82
2023-02-11T10:46:56.311Z,10.50
2023-02-11T10:49:38.934Z,9.77
2023-02-11T10:52:18.318Z,10.15
2023-02-11T10:55:00.946Z,9.47
2023-02-11T10:57:38.883Z,10.02
2023-02-11T11:00:21.622Z,10.40
2023-02-11T11:02:53.814Z,9.70
2023-02-11T11:05:24.367Z,10.13
2023-02-11T11:07:57.028Z,9.87
2023-02-11T11:10:35.562Z,9.30
2023-02-11T11:13:02.818Z,8.82
2023-02-11T11:15:31.300Z,9.60
2023-02-11T11:18:21.227Z,9.07
2023-02-11T11:21:15.826Z,8.90
2023-02-11T11:23:48.271Z,9.43
2023-02-11T11:26:16.462Z,8.75
2023-02-11T11:28:51.994Z,7.95
2023-02-11T11:31:36.405Z,7.80
2023-02-11T11:34:19.736Z,8.43
2023-02-11T11:36:47.005Z,7.82
2023-02-11T11:39:24.877Z,8.80
2023-02-11T11:42:02.301Z,7.70
2023-02-11T11:44:33.924Z,7.65
2023-02-11T11:47:13.555Z,7.57
2023-02-11T11:49:48.653Z,9.40
2023-02-11T11:52:21.849Z,7.95
2023-02-11T11:54:54.317Z,7.93
2023-02-11T11:57:27.168Z,10.15
2023-02-11T11:59:54.428Z,7.80
2023-02-11T12:02:33.367Z,7.80
2023-02-11T12:05:12.676Z,8.10
2023-02-11T12:07:52.205Z,8.38
2023-02-11T12:10:38.205Z,9.07
2023-02-11T12:13:18.357Z,9.10
2023-02-11T12:15:54.624Z,8.68
2023-02-11T12:18:38.769Z,8.80
2023-02-11T12:21:17.224Z,9.15
2023-02-11T12:24:02.761Z,8.90
2023-02-11T12:26:41.282Z,8.70
2023-02-11T12:29:27.309Z,9.13
2023-02-11T12:32:13.117Z,8.75
2023-02-11T12:34:59.101Z,8.50
2023-02-11T12:37:29.286Z,8.65
2023-02-11T12:40:02.636Z,8.23
2023-02-11T12:42:58.347Z,8.23
2023-02-11T12:45:48.475Z,8.43
2023-02-11T12:48:15.885Z,7.90
2023-02-11T12:51:01.494Z,8.80
2023-02-11T12:53:39.653Z,9.40
2023-02-11T12:56:17.220Z,7.75
2023-02-11T12:58:50.968Z,8.20
2023-02-11T13:01:21.633Z,8.18
2023-02-11T13:04:15.330Z,7.85
2023-02-11T13:06:45.348Z,8.37
2023-02-11T13:09:21.135Z,7.40
2023-02-11T13:11:54.869Z,5.47
2023-02-11T13:14:54.120Z,5.00
2023-02-11T13:17:37.616Z,4.65
2023-02-11T13:20:19.510Z,6.67
2023-02-11T13:23:03.081Z,5.10
2023-02-11T13:25:58.037Z,6.25
2023-02-11T13:31:32.552Z,7.70
2023-02-11T13:33:59.810Z,5.50
2023-02-11T13:36:27.867Z,4.57
2023-02-11T13:38:56.960Z,4.10
2023-02-11T13:41:27.356Z,4.10
2023-02-11T13:43:58.936Z,4.72
2023-02-11T13:46:29.223Z,4.80
2023-02-11T13:48:56.627Z,4.45
2023-02-11T13:51:38.246Z,4.45
2023-02-11T13:54:06.378Z,4.00
2023-02-11T13:56:33.583Z,3.97
2023-02-11T13:59:05.505Z,4.27
2023-02-11T14:01:44.814Z,4.35
2023-02-11T14:04:42.432Z,4.20
2023-02-11T14:07:44.848Z,3.92
2023-02-11T14:10:35.343Z,3.50
2023-02-11T14:13:06.427Z,3.60
2023-02-11T14:15:40.408Z,4.07
2023-02-11T14:18:43.093Z,4.07
2023-02-11T14:21:30.984Z,4.05
2023-02-11T14:24:04.966Z,4.07
2023-02-11T14:26:36.009Z,4.20
2023-02-11T14:29:03.128Z,4.00
2023-02-11T14:31:36.848Z,3.45
2023-02-11T14:34:19.989Z,4.03
2023-02-11T14:36:53.794Z,4.20
2023-02-11T14:39:26.038Z,4.30
2023-02-11T14:41:53.520Z,4.10
2023-02-11T14:44:25.276Z,4.45
2023-02-11T14:46:53.438Z,4.53
2023-02-11T14:49:30.500Z,4.07
2023-02-11T14:52:00.614Z,4.30
2023-02-11T14:54:28.683Z,4.00
2023-02-11T14:57:10.090Z,4.40
2023-02-11T14:59:37.544Z,4.97
2023-02-11T15:02:14.914Z,3.88
2023-02-11T15:04:42.156Z,4.07
2023-02-11T15:07:11.948Z,4.20
2023-02-11T15:09:39.124Z,3.30
2023-02-11T15:12:13.635Z,3.70
2023-02-11T15:14:41.639Z,4.75
2023-02-11T15:17:09.845Z,4.73
2023-02-11T15:19:39.041Z,4.40
2023-02-11T15:22:08.000Z,4.25
2023-02-11T15:27:50.661Z,4.30
2023-02-11T15:30:24.272Z,4.47
2023-02-11T15:33:03.311Z,4.05
2023-02-11T15:35:32.741Z,4.10
2023-02-11T15:38:00.431Z,4.18
2023-02-11T15:40:29.882Z,4.00
2023-02-11T15:43:07.345Z,4.23
2023-02-11T15:45:36.107Z,3.90
2023-02-11T15:48:08.045Z,4.30
2023-02-11T15:50:37.162Z,4.25
2023-02-11T15:53:26.118Z,3.95
2023-02-11T15:55:54.676Z,4.33
2023-02-11T15:58:22.650Z,4.22
2023-02-11T16:00:52.171Z,3.97
2023-02-11T16:03:24.113Z,4.00
2023-02-11T16:05:51.616Z,4.35
2023-02-11T16:08:29.971Z,4.03
2023-02-11T16:11:03.500Z,3.80
2023-02-11T16:13:34.884Z,4.55
2023-02-11T16:16:04.614Z,4.00
2023-02-11T16:18:38.371Z,4.20
2023-02-11T16:21:08.509Z,3.80
2023-02-11T16:23:38.072Z,3.47
2023-02-11T16:26:09.023Z,4.00
2023-02-11T16:28:37.473Z,3.90
2023-02-11T16:31:06.783Z,4.22
2023-02-11T16:33:34.235Z,3.63
2023-02-11T16:36:02.219Z,4.30
2023-02-11T16:38:30.501Z,4.10
2023-02-11T16:40:57.707Z,3.95
2023-02-11T16:43:24.889Z,4.00
2023-02-11T16:45:52.511Z,4.70
2023-02-11T16:48:21.117Z,4.68
2023-02-11T16:50:53.143Z,4.20
2023-02-11T16:53:22.927Z,4.00
2023-02-11T16:55:50.303Z,4.18
2023-02-11T16:58:17.555Z,4.73
2023-02-11T17:00:45.182Z,4.50
2023-02-11T17:03:17.367Z,4.30
2023-02-11T17:05:58.216Z,4.63
2023-02-11T17:08:25.613Z,4.75
2023-02-11T17:10:53.160Z,4.43
2023-02-11T17:13:20.473Z,4.18
2023-02-11T17:15:47.718Z,4.35
2023-02-11T17:18:14.969Z,4.30
2023-02-11T17:20:42.569Z,4.60
2023-02-11T17:23:10.293Z,5.30
2023-02-11T17:25:37.614Z,5.50
2023-02-11T17:28:08.921Z,5.00
2023-02-11T17:30:36.254Z,5.28
2023-02-11T17:33:03.565Z,5.55
2023-02-11T17:35:30.737Z,5.43
2023-02-11T17:37:58.673Z,5.35
2023-02-11T17:40:26.364Z,6.50
2023-02-11T17:42:53.498Z,10.20
2023-02-11T17:45:22.352Z,7.28
2023-02-11T17:47:49.840Z,12.13
2023-02-11T17:50:16.992Z,22.30
2023-02-11T17:52:44.180Z,8.75
2023-02-11T17:55:11.369Z,8.65
2023-02-11T17:57:38.590Z,6.22
2023-02-11T18:00:06.460Z,5.27
2023-02-11T18:02:33.626Z,7.03
2023-02-11T18:05:00.850Z,5.80
2023-02-11T18:07:28.158Z,5.53
2023-02-11T18:09:55.308Z,5.65
2023-02-11T18:12:26.084Z,4.93
2023-02-11T18:14:57.481Z,5.25
2023-02-11T18:17:25.175Z,6.13
2023-02-11T18:19:55.712Z,8.80
2023-02-11T18:22:23.122Z,6.85
2023-02-11T18:24:54.069Z,6.20
2023-02-11T18:27:21.756Z,6.00
2023-02-11T18:29:49.166Z,5.72
2023-02-11T18:32:16.302Z,7.25
2023-02-11T18:34:43.766Z,8.85
2023-02-11T18:37:13.202Z,7.43
2023-02-11T18:39:40.547Z,7.53
2023-02-11T18:42:07.721Z,7.10
2023-02-11T18:44:34.991Z,6.32
2023-02-11T18:47:02.203Z,5.40
2023-02-11T18:49:29.363Z,5.70
2023-02-11T18:51:58.677Z,5.72
2023-02-11T18:54:26.087Z,5.70
2023-02-11T18:56:53.268Z,6.10
2023-02-11T18:59:20.420Z,5.88
2023-02-11T19:01:47.646Z,5.70
2023-02-11T19:04:19.688Z,6.75
2023-02-11T19:06:48.862Z,7.45
2023-02-11T19:09:16.974Z,6.55
2023-02-11T19:11:47.104Z,6.22
2023-02-11T19:14:15.313Z,6.80
2023-02-11T19:16:43.888Z,6.40
2023-02-11T19:19:11.142Z,5.88
2023-02-11T19:21:38.466Z,6.05
2023-02-11T19:24:09.275Z,5.95
2023-02-11T19:26:36.854Z,6.00
2023-02-11T19:29:04.598Z,6.07
2023-02-11T19:31:32.384Z,6.45
2023-02-11T19:34:00.089Z,6.00
2023-02-11T19:36:27.303Z,6.68
2023-02-11T19:38:54.569Z,6.20
2023-02-11T19:41:24.546Z,6.35
2023-02-11T19:43:52.915Z,7.50
2023-02-11T19:46:21.307Z,6.68
2023-02-11T19:48:49.125Z,6.53
2023-02-11T19:51:16.665Z,7.50
2023-02-11T19:53:44.131Z,6.93
2023-02-11T19:56:12.637Z,6.90
2023-02-11T19:58:39.962Z,6.65
2023-02-11T20:01:18.378Z,6.80
2023-02-11T20:03:47.300Z,7.63
2023-02-11T20:06:17.065Z,7.13
2023-02-11T20:08:44.439Z,7.28
2023-02-11T20:11:13.681Z,7.05
2023-02-11T20:13:41.113Z,7.18
2023-02-11T20:16:09.708Z,7.87
2023-02-11T20:18:37.414Z,9.60
2023-02-11T20:21:08.682Z,8.13
2023-02-11T20:23:36.382Z,7.53
2023-02-11T20:26:23.507Z,7.72
2023-02-11T20:28:51.397Z,7.93
2023-02-11T20:31:19.116Z,7.05
2023-02-11T20:33:46.817Z,7.65
2023-02-11T20:36:15.822Z,6.68
2023-02-11T20:38:43.567Z,8.05
2023-02-11T20:41:16.563Z,7.30
2023-02-11T20:43:47.942Z,7.45
2023-02-11T20:46:16.230Z,8.73
2023-02-11T20:48:43.557Z,9.23
2023-02-11T20:51:12.067Z,8.10
2023-02-11T20:53:40.450Z,7.20
2023-02-11T20:56:09.472Z,7.18
2023-02-11T20:58:36.736Z,7.65
2023-02-11T21:01:08.105Z,7.50
2023-02-11T21:03:35.316Z,7.60
2023-02-11T21:06:02.824Z,7.50
2023-02-11T21:08:30.020Z,7.70
2023-02-11T21:10:57.405Z,8.23
2023-02-11T21:13:24.600Z,7.25
2023-02-11T21:15:55.904Z,7.50
2023-02-11T21:18:24.192Z,7.47
2023-02-11T21:20:51.402Z,7.15
2023-02-11T21:23:18.580Z,7.10
2023-02-11T21:25:45.769Z,7.13
2023-02-11T21:28:13.317Z,6.85
2023-02-11T21:30:41.144Z,6.80
2023-02-11T21:33:08.531Z,6.72
2023-02-11T21:35:36.306Z,7.07
2023-02-11T21:38:04.036Z,6.70
2023-02-11T21:40:31.184Z,6.85
2023-02-11T21:42:58.478Z,7.00
2023-02-11T21:45:26.010Z,6.90
2023-02-11T21:47:53.234Z,7.03
2023-02-11T21:50:20.655Z,6.65
2023-02-11T21:52:47.895Z,6.72
2023-02-11T21:55:15.196Z,7.40
2023-02-11T21:57:42.449Z,7.78
2023-02-11T22:00:10.430Z,9.98
2023-02-11T22:02:42.292Z,8.80
2023-02-11T22:05:09.498Z,7.18
2023-02-11T22:07:36.971Z,7.10
2023-02-11T22:10:04.473Z,7.13
2023-02-11T22:12:31.766Z,8.27
2023-02-11T22:14:58.900Z,6.78
2023-02-11T22:17:26.102Z,7.65
2023-02-11T22:19:53.341Z,7.03
2023-02-11T22:22:21.208Z,7.57
2023-02-11T22:24:48.413Z,6.97
2023-02-11T22:27:18.511Z,7.38
2023-02-11T22:29:47.255Z,7.10
2023-02-11T22:32:14.472Z,6.77
2023-02-11T22:34:41.657Z,7.20
2023-02-11T22:37:08.861Z,7.40
2023-02-11T22:39:36.142Z,7.78
2023-02-11T22:42:03.310Z,7.13
2023-02-11T22:44:30.449Z,7.23
2023-02-11T22:46:57.613Z,7.47
2023-02-11T22:49:25.077Z,8.07
2023-02-11T22:51:52.250Z,7.60
2023-02-11T22:54:19.843Z,7.85
2023-02-11T22:56:50.606Z,7.30
2023-02-11T22:59:17.829Z,7.72
2023-02-11T23:01:45.524Z,8.27
2023-02-11T23:04:13.778Z,8.13
2023-02-11T23:06:41.110Z,8.52
2023-02-11T23:09:09.313Z,8.50
2023-02-11T23:11:36.807Z,8.73
2023-02-11T23:14:04.091Z,9.20
2023-02-11T23:16:32.934Z,9.63
2023-02-11T23:19:01.439Z,9.05
2023-02-11T23:21:30.268Z,9.53
2023-02-11T23:23:58.906Z,9.80
2023-02-11T23:26:26.367Z,9.70
2023-02-11T23:28:53.565Z,10.60
2023-02-11T23:31:25.869Z,9.38
2023-02-11T23:33:53.354Z,9.20
2023-02-11T23:36:21.042Z,9.68
2023-02-11T23:38:48.580Z,9.65
2023-02-11T23:41:15.985Z,8.95
2023-02-11T23:43:43.359Z,9.80
2023-02-11T23:46:11.026Z,9.83
2023-02-11T23:48:40.506Z,8.73
2023-02-11T23:51:09.879Z,10.23
2023-02-11T23:53:40.585Z,9.60
2023-02-11T23:56:09.206Z,10.07
2023-02-11T23:58:37.772Z,9.77
